Mary Alice II — WDE3827 — position and weather

sailwx.info

Track history (hours):
 
Tides and Currents Weather Stations Pressure Air Temp Water Temp Dewpoint Dewpoint Depression Visibility Wind Speed Wind Dir Waves Ship Positions

Mary Alice II

Owner: Lakeshore Drive Investment, Rollins, MT. More information available from US FCC via Universal Licensing System and Coast Guard Vessel Documentation Center.

Last reported at 2016-Sep-30 17:32 UTC. Time now 2016-Sep-30 20:24 UTC.
Position N 47°39' W 122°20'.

Length 40 m; draft 2.2 m.

Type: Pleasure craft. MMSI: 367344710.

Date/timePositionNaut miles runAvg speedWind from/ knotsBaromVisibWave heightAir tempDewpointWater temp
2016-Sep-30 17:32N 47°39' W 122°20'0 0.0
2016-Sep-30 16:32N 47°39' W 122°20'0 0.0
2016-Sep-30 14:29N 47°39' W 122°20'0 0.0
2016-Sep-30 13:32N 47°39' W 122°20'0 0.0
2016-Sep-30 10:32N 47°39' W 122°20'0 0.0
2016-Sep-30 08:30N 47°39' W 122°20'0 0.0
2016-Sep-30 06:32N 47°39' W 122°20'0 0.0
2016-Sep-30 03:32N 47°39' W 122°20'0 0.0
2016-Sep-30 02:32N 47°39' W 122°20'0 0.0
2016-Sep-29 23:29N 47°39' W 122°20'0 0.0
2016-Sep-29 21:33N 47°39' W 122°20'0 0.0
2016-Sep-29 20:32N 47°39' W 122°20'0 0.0
2016-Sep-29 19:29N 47°39' W 122°20'0 0.0
2016-Sep-29 16:32N 47°39' W 122°20'0 0.0
2016-Sep-29 15:32N 47°39' W 122°20'0 0.0
2016-Sep-29 14:32N 47°39' W 122°20'0 0.0
2016-Sep-29 13:32N 47°39' W 122°20'0 0.0
2016-Sep-29 08:32N 47°39' W 122°20'0 0.0
2016-Sep-29 07:32N 47°39' W 122°20'0 0.0
2016-Sep-29 00:33N 47°39' W 122°20'0 0.0
2016-Sep-28 21:33N 47°39' W 122°20'0 0.0
2016-Sep-28 19:32N 47°39' W 122°20'0 0.0
2016-Sep-28 16:32N 47°39' W 122°20'0 0.0
2016-Sep-28 15:32N 47°39' W 122°20'0 0.0
2016-Sep-28 12:29N 47°39' W 122°20'0 0.0
2016-Sep-28 08:32N 47°39' W 122°20'0 0.0
2016-Sep-28 03:32N 47°39' W 122°20'0 0.0
2016-Sep-28 02:23N 47°39' W 122°20'0 0.0
2016-Sep-28 01:33N 47°39' W 122°20'0 0.0
2016-Sep-27 23:32N 47°39' W 122°20'0 0.0
2016-Sep-27 19:32N 47°39' W 122°20'0 0.0
2016-Sep-27 00:29N 47°39' W 122°20'0 0.0
2016-Sep-26 20:32N 47°39' W 122°20'0 0.0
2016-Sep-26 19:32N 47°39' W 122°20'0 0.0
2016-Sep-26 11:30N 47°39' W 122°20'0 0.0
2016-Sep-26 08:32N 47°39' W 122°20'0 0.0
2016-Sep-26 02:29N 47°39' W 122°20'0 0.0
2016-Sep-26 01:32N 47°39' W 122°20'0 0.0
2016-Sep-26 00:33N 47°39' W 122°20'0 0.0
2016-Sep-25 21:29N 47°39' W 122°20'25 6.2
2016-Sep-25 17:28N 48°01' W 122°38'1515.0
2016-Sep-25 16:30N 48°12' W 122°51'1313.5
2016-Sep-25 15:32N 48°23' W 123°02'1414.2
2016-Sep-25 14:34N 48°35' W 123°13'3 1.3
2016-Sep-25 12:33N 48°37' W 123°09'0 0.0
2016-Sep-25 11:33N 48°37' W 123°09'0 0.0
2016-Sep-25 10:33N 48°37' W 123°09'0 0.0
2016-Sep-25 09:33N 48°37' W 123°09'0 0.0
2016-Sep-25 07:34N 48°37' W 123°09'0 0.0
2016-Sep-25 04:33N 48°37' W 123°09'0 0.0
2016-Sep-25 00:33N 48°37' W 123°09'13 6.6
2016-Sep-24 22:33N 48°49' W 123°03'1414.2
2016-Sep-24 21:33N 48°58' W 123°20'2713.6
2016-Sep-24 19:33N 49°15' W 123°52'1413.7
2016-Sep-24 18:33N 49°20' W 124°11'1413.6
2016-Sep-24 17:33N 49°29' W 124°27'1414.0
2016-Sep-24 16:33N 49°38' W 124°44'2813.7
2016-Sep-24 14:32N 49°59' W 125°12'10 0.3
2016-Sep-22 23:33N 50°07' W 125°20'73 3.1
2016-Sep-22 00:15N 50°36' W 127°05'4 5.1
2016-Sep-21 23:33N 50°38' W 127°10'1413.6
2016-Sep-21 22:33N 50°48' W 127°24'3712.3
2016-Sep-21 19:33N 51°20' W 127°52'  
Track history (hours):
 
Tides and Currents Weather Stations Pressure Air Temp Water Temp Dewpoint Dewpoint Depression Visibility Wind Speed Wind Dir Waves Ship Positions

Mary Alice II

Owner: Lakeshore Drive Investment, Rollins, MT. More information available from US FCC via Universal Licensing System and Coast Guard Vessel Documentation Center.

Last reported at 2016-Sep-30 17:32 UTC. Time now 2016-Sep-30 20:24 UTC.
Position N 47°39' W 122°20'.

Length 40 m; draft 2.2 m.

Type: Pleasure craft. MMSI: 367344710.

Date/timePositionNaut miles runAvg speedWind from/ knotsBaromVisibWave heightAir tempDewpointWater temp
2016-Sep-30 17:32N 47°39' W 122°20'0 0.0
2016-Sep-30 16:32N 47°39' W 122°20'0 0.0
2016-Sep-30 14:29N 47°39' W 122°20'0 0.0
2016-Sep-30 13:32N 47°39' W 122°20'0 0.0
2016-Sep-30 10:32N 47°39' W 122°20'0 0.0
2016-Sep-30 08:30N 47°39' W 122°20'0 0.0
2016-Sep-30 06:32N 47°39' W 122°20'0 0.0
2016-Sep-30 03:32N 47°39' W 122°20'0 0.0
2016-Sep-30 02:32N 47°39' W 122°20'0 0.0
2016-Sep-29 23:29N 47°39' W 122°20'0 0.0
2016-Sep-29 21:33N 47°39' W 122°20'0 0.0
2016-Sep-29 20:32N 47°39' W 122°20'0 0.0
2016-Sep-29 19:29N 47°39' W 122°20'0 0.0
2016-Sep-29 16:32N 47°39' W 122°20'0 0.0
2016-Sep-29 15:32N 47°39' W 122°20'0 0.0
2016-Sep-29 14:32N 47°39' W 122°20'0 0.0
2016-Sep-29 13:32N 47°39' W 122°20'0 0.0
2016-Sep-29 08:32N 47°39' W 122°20'0 0.0
2016-Sep-29 07:32N 47°39' W 122°20'0 0.0
2016-Sep-29 00:33N 47°39' W 122°20'0 0.0
2016-Sep-28 21:33N 47°39' W 122°20'0 0.0
2016-Sep-28 19:32N 47°39' W 122°20'0 0.0
2016-Sep-28 16:32N 47°39' W 122°20'0 0.0
2016-Sep-28 15:32N 47°39' W 122°20'0 0.0
2016-Sep-28 12:29N 47°39' W 122°20'0 0.0
2016-Sep-28 08:32N 47°39' W 122°20'0 0.0
2016-Sep-28 03:32N 47°39' W 122°20'0 0.0
2016-Sep-28 02:23N 47°39' W 122°20'0 0.0
2016-Sep-28 01:33N 47°39' W 122°20'0 0.0
2016-Sep-27 23:32N 47°39' W 122°20'0 0.0
2016-Sep-27 19:32N 47°39' W 122°20'0 0.0
2016-Sep-27 00:29N 47°39' W 122°20'0 0.0
2016-Sep-26 20:32N 47°39' W 122°20'0 0.0
2016-Sep-26 19:32N 47°39' W 122°20'0 0.0
2016-Sep-26 11:30N 47°39' W 122°20'0 0.0
2016-Sep-26 08:32N 47°39' W 122°20'0 0.0
2016-Sep-26 02:29N 47°39' W 122°20'0 0.0
2016-Sep-26 01:32N 47°39' W 122°20'0 0.0
2016-Sep-26 00:33N 47°39' W 122°20'0 0.0
2016-Sep-25 21:29N 47°39' W 122°20'25 6.2
2016-Sep-25 17:28N 48°01' W 122°38'1515.0
2016-Sep-25 16:30N 48°12' W 122°51'1313.5
2016-Sep-25 15:32N 48°23' W 123°02'1414.2
2016-Sep-25 14:34N 48°35' W 123°13'3 1.3
2016-Sep-25 12:33N 48°37' W 123°09'0 0.0
2016-Sep-25 11:33N 48°37' W 123°09'0 0.0
2016-Sep-25 10:33N 48°37' W 123°09'0 0.0
2016-Sep-25 09:33N 48°37' W 123°09'0 0.0
2016-Sep-25 07:34N 48°37' W 123°09'0 0.0
2016-Sep-25 04:33N 48°37' W 123°09'0 0.0
2016-Sep-25 00:33N 48°37' W 123°09'13 6.6
2016-Sep-24 22:33N 48°49' W 123°03'1414.2
2016-Sep-24 21:33N 48°58' W 123°20'2713.6
2016-Sep-24 19:33N 49°15' W 123°52'1413.7
2016-Sep-24 18:33N 49°20' W 124°11'1413.6
2016-Sep-24 17:33N 49°29' W 124°27'1414.0
2016-Sep-24 16:33N 49°38' W 124°44'2813.7
2016-Sep-24 14:32N 49°59' W 125°12'10 0.3
2016-Sep-22 23:33N 50°07' W 125°20'73 3.1
2016-Sep-22 00:15N 50°36' W 127°05'4 5.1
2016-Sep-21 23:33N 50°38' W 127°10'1413.6
2016-Sep-21 22:33N 50°48' W 127°24'3712.3
2016-Sep-21 19:33N 51°20' W 127°52'  

Dump ship's entire track history